Maersk Saigon — 9V5630 — position and weather

sailwx.info

Track history (hours):
 
Tides and Currents Weather Stations Pressure Air Temp Water Temp Dewpoint Dewpoint Depression Visibility Wind Speed Wind Dir Waves Ship Positions

Maersk Saigon

Last reported at 2018-Feb-19 17:44 UTC. Time now 2018-Feb-22 22:57 UTC.
Position N 39°36' W 073°56'.

Length 331 m; draft 10.6 m.

Type: Ship (hazmat cat A). MMSI: 563032700.

Date/timePositionNaut miles runAvg speedWind from/ knotsBaromVisibWave heightAir tempDewpointWater temp
2018-Feb-19 17:44N 39°36' W 073°56'517.7
2018-Feb-19 17:28N 39°41' W 073°54'817.6
2018-Feb-19 17:00N 39°49' W 073°51'2415.5
2018-Feb-19 15:26N 40°13' W 073°50'4 9.9
2018-Feb-19 15:00N 40°17' W 073°49'5 9.6
2018-Feb-19 14:29N 40°22' W 073°49'4 8.9
2018-Feb-19 14:00N 40°27' W 073°49'4 7.4
2018-Feb-19 13:30N 40°29' W 073°53'611.7
2018-Feb-19 13:00N 40°31' W 074°00'714.2
2018-Feb-19 12:30N 40°38' W 074°03'3 5.3
2018-Feb-19 12:00N 40°39' W 074°07'2 3.2
2018-Feb-19 11:30N 40°39' W 074°09'1 1.4
2018-Feb-19 10:59N 40°40' W 074°09'0 0.0
2018-Feb-19 10:29N 40°40' W 074°09'0 0.0
2018-Feb-19 09:59N 40°40' W 074°09'0 0.0
2018-Feb-19 09:29N 40°40' W 074°09'0 0.0
2018-Feb-19 08:59N 40°40' W 074°09'0 0.0
2018-Feb-19 08:25N 40°40' W 074°09'0 0.0
2018-Feb-19 07:58N 40°40' W 074°09'0 0.0
2018-Feb-19 07:28N 40°40' W 074°09'0 0.0
2018-Feb-19 06:58N 40°40' W 074°09'0 0.0
2018-Feb-19 06:30N 40°40' W 074°09'0 0.0
2018-Feb-19 06:00N 40°40' W 074°09'0 0.0
2018-Feb-19 05:30N 40°40' W 074°09'0 0.0
2018-Feb-19 05:00N 40°40' W 074°09'0 0.0
2018-Feb-19 04:30N 40°40' W 074°09'0 0.0
2018-Feb-19 03:59N 40°40' W 074°09'0 0.0
2018-Feb-19 03:29N 40°40' W 074°09'0 0.0
2018-Feb-19 02:59N 40°40' W 074°09'0 0.0
2018-Feb-19 02:29N 40°40' W 074°09'0 0.0
2018-Feb-19 01:58N 40°40' W 074°09'0 0.0
2018-Feb-19 01:28N 40°40' W 074°09'0 0.0
2018-Feb-19 00:58N 40°40' W 074°09'0 0.0
2018-Feb-19 00:22N 40°40' W 074°09'0 0.0
2018-Feb-18 23:58N 40°40' W 074°09'0 0.0
2018-Feb-18 23:30N 40°40' W 074°09'0 0.0
2018-Feb-18 23:00N 40°40' W 074°09'0 0.0
2018-Feb-18 22:30N 40°40' W 074°09'0 0.3
2018-Feb-18 22:00N 40°40' W 074°09'2 3.2
2018-Feb-18 21:30N 40°39' W 074°07'3 6.3
2018-Feb-18 21:00N 40°38' W 074°03'510.9
2018-Feb-18 20:30N 40°33' W 074°01'713.1
2018-Feb-18 19:59N 40°29' W 073°54'612.0
2018-Feb-18 19:30N 40°27' W 073°47'5 9.4
2018-Feb-18 19:00N 40°22' W 073°47'510.0
2018-Feb-18 18:30N 40°17' W 073°46'2811.3
2018-Feb-18 16:01N 39°49' W 073°42'56015.9
2018-Feb-17 04:46N 32°01' W 080°01'519.0
2018-Feb-17 04:29N 31°59' W 080°07'1019.3
2018-Feb-17 03:59N 31°56' W 080°17'917.9
2018-Feb-17 03:30N 31°54' W 080°27'611.1
2018-Feb-17 02:59N 31°55' W 080°34'510.2
2018-Feb-17 02:30N 31°56' W 080°39'510.7
2018-Feb-17 02:01N 31°59' W 080°45'714.0
2018-Feb-17 01:31N 32°02' W 080°52'510.5
2018-Feb-17 01:01N 32°04' W 080°58'4 8.7
2018-Feb-17 00:30N 32°05' W 081°03'3 6.7
2018-Feb-17 00:00N 32°06' W 081°07'2 5.0
2018-Feb-16 23:30N 32°08' W 081°08'0 0.3
2018-Feb-16 22:56N 32°08' W 081°08'0 0.0
2018-Feb-16 22:26N 32°08' W 081°08'0 0.0
2018-Feb-16 21:55N 32°08' W 081°08'0 0.0
2018-Feb-16 21:25N 32°08' W 081°08'0 0.0
2018-Feb-16 20:55N 32°08' W 081°08'0 0.0
2018-Feb-16 20:25N 32°08' W 081°08'0 0.0
2018-Feb-16 20:00N 32°08' W 081°08'0 0.0
2018-Feb-16 19:30N 32°08' W 081°08'0 0.0
2018-Feb-16 19:00N 32°08' W 081°08'0 0.0
2018-Feb-16 18:24N 32°08' W 081°08'0 0.0
2018-Feb-16 18:00N 32°08' W 081°08'0 0.0
2018-Feb-16 17:29N 32°08' W 081°08'0 0.0
2018-Feb-16 16:53N 32°08' W 081°08'0 0.0
2018-Feb-16 16:23N 32°08' W 081°08'0 0.0
2018-Feb-16 15:59N 32°08' W 081°08'0 0.0
2018-Feb-16 15:29N 32°08' W 081°08'0 0.0
2018-Feb-16 14:58N 32°08' W 081°08'0 0.0
2018-Feb-16 14:22N 32°08' W 081°08'0 0.0
2018-Feb-16 13:58N 32°08' W 081°08'0 0.0
2018-Feb-16 13:19N 32°08' W 081°08'0 0.0
2018-Feb-16 12:55N 32°08' W 081°08'0 0.0
2018-Feb-16 12:06N 32°08' W 081°08'0 0.0
2018-Feb-16 12:00N 32°08' W 081°08'0 0.0
2018-Feb-16 11:30N 32°08' W 081°08'0 0.0
2018-Feb-16 11:00N 32°08' W 081°08'0 0.0
2018-Feb-16 10:30N 32°08' W 081°08'0 0.0
2018-Feb-16 09:59N 32°08' W 081°08'0 0.0
2018-Feb-16 09:29N 32°08' W 081°08'0 0.0
2018-Feb-16 08:53N 32°08' W 081°08'0 0.0
2018-Feb-16 08:29N 32°08' W 081°08'0 0.0
2018-Feb-16 07:59N 32°08' W 081°08'0 0.0
2018-Feb-16 07:28N 32°08' W 081°08'0 0.0
2018-Feb-16 06:58N 32°08' W 081°08'0 0.0
2018-Feb-16 06:24N 32°08' W 081°08'0 0.0
2018-Feb-16 05:58N 32°08' W 081°08'0 0.0
2018-Feb-16 05:28N 32°08' W 081°08'0 0.0
2018-Feb-16 04:51N 32°08' W 081°08'0 0.0
2018-Feb-16 04:27N 32°08' W 081°08'0 0.0
2018-Feb-16 03:57N 32°08' W 081°08'0 0.0
2018-Feb-16 03:21N 32°08' W 081°08'0 0.0
2018-Feb-16 02:38N 32°08' W 081°08'0 0.0
2018-Feb-16 02:26N 32°08' W 081°08'0 0.0
2018-Feb-16 01:56N 32°08' W 081°08'0 0.0
2018-Feb-16 01:26N 32°08' W 081°08'0 0.0
2018-Feb-16 00:56N 32°08' W 081°08'0 0.0
2018-Feb-16 00:13N 32°08' W 081°08'0 0.0
2018-Feb-15 23:55N 32°08' W 081°08'0 0.0
2018-Feb-15 23:19N 32°08' W 081°08'0 0.0
2018-Feb-15 22:55N 32°08' W 081°08'0 0.0
2018-Feb-15 22:31N 32°08' W 081°08'0 0.0
2018-Feb-15 21:54N 32°08' W 081°08'0 0.0
2018-Feb-15 21:30N 32°08' W 081°08'0 0.0
2018-Feb-15 21:00N 32°08' W 081°08'0 0.0
2018-Feb-15 20:30N 32°08' W 081°08'0 0.0
2018-Feb-15 19:59N 32°08' W 081°08'0 0.0
2018-Feb-15 19:29N 32°08' W 081°08'0 0.0
2018-Feb-15 18:59N 32°08' W 081°08'0 0.0
2018-Feb-15 18:29N 32°08' W 081°08'0 0.0
2018-Feb-15 17:59N 32°08' W 081°08'0 0.0
2018-Feb-15 17:28N 32°08' W 081°08'0 0.0
2018-Feb-15 16:58N 32°08' W 081°08'0 0.0
2018-Feb-15 16:28N 32°08' W 081°08'0 0.0
2018-Feb-15 15:58N 32°08' W 081°08'0 0.0
2018-Feb-15 15:27N 32°08' W 081°08'0 0.6
2018-Feb-15 15:00N 32°08' W 081°08'2 4.9
2018-Feb-15 14:30N 32°06' W 081°06'3 5.6
2018-Feb-15 14:00N 32°05' W 081°03'4 7.1
2018-Feb-15 13:30N 32°05' W 080°59'5 9.6
2018-Feb-15 13:00N 32°02' W 080°54'612.9
2018-Feb-15 12:30N 31°60' W 080°47'714.6
2018-Feb-15 12:00N 31°57' W 080°39'510.9
2018-Feb-15 11:30N 31°56' W 080°33'2 0.4
2018-Feb-15 05:46N 31°56' W 080°30'0 0.2
2018-Feb-15 05:27N 31°56' W 080°30'0 0.1
2018-Feb-15 04:57N 31°56' W 080°30'0 0.0
2018-Feb-15 04:27N 31°56' W 080°30'0 0.0
2018-Feb-15 03:57N 31°56' W 080°30'0 0.0
2018-Feb-15 03:21N 31°56' W 080°30'0 0.1
2018-Feb-15 02:56N 31°56' W 080°30'0 0.0
2018-Feb-15 02:26N 31°56' W 080°30'0 0.1
2018-Feb-14 22:49N 31°56' W 080°31'0 0.0
2018-Feb-14 22:12N 31°56' W 080°31'0 0.0
2018-Feb-14 20:30N 31°56' W 080°31'0 0.0
2018-Feb-14 19:47N 31°56' W 080°31'0 0.1
2018-Feb-14 19:29N 31°56' W 080°31'0 0.0
2018-Feb-14 18:41N 31°56' W 080°31'0 0.1
2018-Feb-14 18:23N 31°56' W 080°31'0 0.1
2018-Feb-14 17:52N 31°56' W 080°31'0 0.1
2018-Feb-14 17:28N 31°56' W 080°31'0 0.1
2018-Feb-14 16:58N 31°56' W 080°31'0 0.1
2018-Feb-14 16:28N 31°56' W 080°31'0 0.0
2018-Feb-14 15:58N 31°56' W 080°31'0 0.0
2018-Feb-14 15:21N 31°56' W 080°31'0 0.1
2018-Feb-14 14:57N 31°56' W 080°31'0 0.0
2018-Feb-14 14:09N 31°56' W 080°31'0 0.0
2018-Feb-14 13:51N 31°56' W 080°31'0 0.1
2018-Feb-14 13:14N 31°56' W 080°31'0 0.4
2018-Feb-14 12:56N 31°56' W 080°31'0 0.1
2018-Feb-14 12:26N 31°56' W 080°31'0 0.0
2018-Feb-14 10:55N 31°56' W 080°31'0 0.1
2018-Feb-14 10:25N 31°56' W 080°31'0 0.0
2018-Feb-14 09:31N 31°56' W 080°31'0 0.1
2018-Feb-14 09:01N 31°56' W 080°31'0 0.1
2018-Feb-14 08:48N 31°56' W 080°31'0 0.0
2018-Feb-14 07:48N 31°56' W 080°31'0 0.1
2018-Feb-14 07:30N 31°56' W 080°31'0 0.0
2018-Feb-14 07:00N 31°56' W 080°31'0 0.0
2018-Feb-14 05:41N 31°56' W 080°31'0 0.1
2018-Feb-14 05:29N 31°56' W 080°31'0 0.0
2018-Feb-14 04:53N 31°56' W 080°31'0 0.0
2018-Feb-14 04:23N 31°56' W 080°31'0 0.0
2018-Feb-14 03:58N 31°56' W 080°31'0 0.0
2018-Feb-14 03:28N 31°56' W 080°31'0 0.0
2018-Feb-14 02:58N 31°56' W 080°31'0 0.0
2018-Feb-14 02:28N 31°56' W 080°31'0 0.0
2018-Feb-14 01:58N 31°56' W 080°31'0 0.1
2018-Feb-14 01:21N 31°56' W 080°31'0 0.0
2018-Feb-14 00:51N 31°56' W 080°31'0 0.0
2018-Feb-14 00:21N 31°56' W 080°31'0 0.0
2018-Feb-13 23:32N 31°56' W 080°31'0 0.3
2018-Feb-13 23:20N 31°56' W 080°31'0 0.0
2018-Feb-13 22:56N 31°56' W 080°31'0 0.0
2018-Feb-13 22:08N 31°56' W 080°31'0 0.1
2018-Feb-13 21:56N 31°56' W 080°31'0 0.0
2018-Feb-13 21:26N 31°56' W 080°31'0 0.0
2018-Feb-13 20:49N 31°56' W 080°31'0 0.1
2018-Feb-13 20:19N 31°56' W 080°31'0 0.1
2018-Feb-13 19:49N 31°56' W 080°31'0 0.1
2018-Feb-13 19:19N 31°56' W 080°31'0 0.1
2018-Feb-13 19:01N 31°56' W 080°31'0 0.1
2018-Feb-13 18:30N 31°56' W 080°31'0 0.1
2018-Feb-13 18:00N 31°56' W 080°31'0 0.0
2018-Feb-13 17:30N 31°56' W 080°31'0 0.0
2018-Feb-13 17:00N 31°56' W 080°31'0 0.0
2018-Feb-13 16:29N 31°56' W 080°31'0 0.1
2018-Feb-13 15:59N 31°56' W 080°31'0 0.1
2018-Feb-13 15:29N 31°56' W 080°31'1 1.7
2018-Feb-13 15:00N 31°55' W 080°31'4 8.3
2018-Feb-13 14:30N 31°51' W 080°30'611.5
2018-Feb-13 14:00N 31°46' W 080°26'32713.1
2018-Feb-12 13:01N 26°23' W 079°26'020.7
2018-Feb-12 12:59N 26°23' W 079°26'1021.0
2018-Feb-12 12:30N 26°13' W 079°29'1121.3
2018-Feb-12 12:00N 26°03' W 079°32'1121.5
2018-Feb-12 11:30N 25°53' W 079°35'1121.7
2018-Feb-12 11:00N 25°42' W 079°35'1122.0
2018-Feb-12 10:31N 25°31' W 079°35'  
2018-Feb-10 00:26N 09°38' W 079°57'921.0
2018-Feb-10 00:00N 09°30' W 079°55'714.9
2018-Feb-09 23:30N 09°22' W 079°55'1 2.9
2018-Feb-09 23:00N 09°21' W 079°55'0 0.5
2018-Feb-09 22:45N 09°21' W 079°55'  
Track history (hours):
 
Tides and Currents Weather Stations Pressure Air Temp Water Temp Dewpoint Dewpoint Depression Visibility Wind Speed Wind Dir Waves Ship Positions

Maersk Saigon

Last reported at 2018-Feb-19 17:44 UTC. Time now 2018-Feb-22 22:57 UTC.
Position N 39°36' W 073°56'.

Length 331 m; draft 10.6 m.

Type: Ship (hazmat cat A). MMSI: 563032700.

Date/timePositionNaut miles runAvg speedWind from/ knotsBaromVisibWave heightAir tempDewpointWater temp
2018-Feb-19 17:44N 39°36' W 073°56'517.7
2018-Feb-19 17:28N 39°41' W 073°54'817.6
2018-Feb-19 17:00N 39°49' W 073°51'2415.5
2018-Feb-19 15:26N 40°13' W 073°50'4 9.9
2018-Feb-19 15:00N 40°17' W 073°49'5 9.6
2018-Feb-19 14:29N 40°22' W 073°49'4 8.9
2018-Feb-19 14:00N 40°27' W 073°49'4 7.4
2018-Feb-19 13:30N 40°29' W 073°53'611.7
2018-Feb-19 13:00N 40°31' W 074°00'714.2
2018-Feb-19 12:30N 40°38' W 074°03'3 5.3
2018-Feb-19 12:00N 40°39' W 074°07'2 3.2
2018-Feb-19 11:30N 40°39' W 074°09'1 1.4
2018-Feb-19 10:59N 40°40' W 074°09'0 0.0
2018-Feb-19 10:29N 40°40' W 074°09'0 0.0
2018-Feb-19 09:59N 40°40' W 074°09'0 0.0
2018-Feb-19 09:29N 40°40' W 074°09'0 0.0
2018-Feb-19 08:59N 40°40' W 074°09'0 0.0
2018-Feb-19 08:25N 40°40' W 074°09'0 0.0
2018-Feb-19 07:58N 40°40' W 074°09'0 0.0
2018-Feb-19 07:28N 40°40' W 074°09'0 0.0
2018-Feb-19 06:58N 40°40' W 074°09'0 0.0
2018-Feb-19 06:30N 40°40' W 074°09'0 0.0
2018-Feb-19 06:00N 40°40' W 074°09'0 0.0
2018-Feb-19 05:30N 40°40' W 074°09'0 0.0
2018-Feb-19 05:00N 40°40' W 074°09'0 0.0
2018-Feb-19 04:30N 40°40' W 074°09'0 0.0
2018-Feb-19 03:59N 40°40' W 074°09'0 0.0
2018-Feb-19 03:29N 40°40' W 074°09'0 0.0
2018-Feb-19 02:59N 40°40' W 074°09'0 0.0
2018-Feb-19 02:29N 40°40' W 074°09'0 0.0
2018-Feb-19 01:58N 40°40' W 074°09'0 0.0
2018-Feb-19 01:28N 40°40' W 074°09'0 0.0
2018-Feb-19 00:58N 40°40' W 074°09'0 0.0
2018-Feb-19 00:22N 40°40' W 074°09'0 0.0
2018-Feb-18 23:58N 40°40' W 074°09'0 0.0
2018-Feb-18 23:30N 40°40' W 074°09'0 0.0
2018-Feb-18 23:00N 40°40' W 074°09'0 0.0
2018-Feb-18 22:30N 40°40' W 074°09'0 0.3
2018-Feb-18 22:00N 40°40' W 074°09'2 3.2
2018-Feb-18 21:30N 40°39' W 074°07'3 6.3
2018-Feb-18 21:00N 40°38' W 074°03'510.9
2018-Feb-18 20:30N 40°33' W 074°01'713.1
2018-Feb-18 19:59N 40°29' W 073°54'612.0
2018-Feb-18 19:30N 40°27' W 073°47'5 9.4
2018-Feb-18 19:00N 40°22' W 073°47'510.0
2018-Feb-18 18:30N 40°17' W 073°46'2811.3
2018-Feb-18 16:01N 39°49' W 073°42'56015.9
2018-Feb-17 04:46N 32°01' W 080°01'519.0
2018-Feb-17 04:29N 31°59' W 080°07'1019.3
2018-Feb-17 03:59N 31°56' W 080°17'917.9
2018-Feb-17 03:30N 31°54' W 080°27'611.1
2018-Feb-17 02:59N 31°55' W 080°34'510.2
2018-Feb-17 02:30N 31°56' W 080°39'510.7
2018-Feb-17 02:01N 31°59' W 080°45'714.0
2018-Feb-17 01:31N 32°02' W 080°52'510.5
2018-Feb-17 01:01N 32°04' W 080°58'4 8.7
2018-Feb-17 00:30N 32°05' W 081°03'3 6.7
2018-Feb-17 00:00N 32°06' W 081°07'2 5.0
2018-Feb-16 23:30N 32°08' W 081°08'0 0.3
2018-Feb-16 22:56N 32°08' W 081°08'0 0.0
2018-Feb-16 22:26N 32°08' W 081°08'0 0.0
2018-Feb-16 21:55N 32°08' W 081°08'0 0.0
2018-Feb-16 21:25N 32°08' W 081°08'0 0.0
2018-Feb-16 20:55N 32°08' W 081°08'0 0.0
2018-Feb-16 20:25N 32°08' W 081°08'0 0.0
2018-Feb-16 20:00N 32°08' W 081°08'0 0.0
2018-Feb-16 19:30N 32°08' W 081°08'0 0.0
2018-Feb-16 19:00N 32°08' W 081°08'0 0.0
2018-Feb-16 18:24N 32°08' W 081°08'0 0.0
2018-Feb-16 18:00N 32°08' W 081°08'0 0.0
2018-Feb-16 17:29N 32°08' W 081°08'0 0.0
2018-Feb-16 16:53N 32°08' W 081°08'0 0.0
2018-Feb-16 16:23N 32°08' W 081°08'0 0.0
2018-Feb-16 15:59N 32°08' W 081°08'0 0.0
2018-Feb-16 15:29N 32°08' W 081°08'0 0.0
2018-Feb-16 14:58N 32°08' W 081°08'0 0.0
2018-Feb-16 14:22N 32°08' W 081°08'0 0.0
2018-Feb-16 13:58N 32°08' W 081°08'0 0.0
2018-Feb-16 13:19N 32°08' W 081°08'0 0.0
2018-Feb-16 12:55N 32°08' W 081°08'0 0.0
2018-Feb-16 12:06N 32°08' W 081°08'0 0.0
2018-Feb-16 12:00N 32°08' W 081°08'0 0.0
2018-Feb-16 11:30N 32°08' W 081°08'0 0.0
2018-Feb-16 11:00N 32°08' W 081°08'0 0.0
2018-Feb-16 10:30N 32°08' W 081°08'0 0.0
2018-Feb-16 09:59N 32°08' W 081°08'0 0.0
2018-Feb-16 09:29N 32°08' W 081°08'0 0.0
2018-Feb-16 08:53N 32°08' W 081°08'0 0.0
2018-Feb-16 08:29N 32°08' W 081°08'0 0.0
2018-Feb-16 07:59N 32°08' W 081°08'0 0.0
2018-Feb-16 07:28N 32°08' W 081°08'0 0.0
2018-Feb-16 06:58N 32°08' W 081°08'0 0.0
2018-Feb-16 06:24N 32°08' W 081°08'0 0.0
2018-Feb-16 05:58N 32°08' W 081°08'0 0.0
2018-Feb-16 05:28N 32°08' W 081°08'0 0.0
2018-Feb-16 04:51N 32°08' W 081°08'0 0.0
2018-Feb-16 04:27N 32°08' W 081°08'0 0.0
2018-Feb-16 03:57N 32°08' W 081°08'0 0.0
2018-Feb-16 03:21N 32°08' W 081°08'0 0.0
2018-Feb-16 02:38N 32°08' W 081°08'0 0.0
2018-Feb-16 02:26N 32°08' W 081°08'0 0.0
2018-Feb-16 01:56N 32°08' W 081°08'0 0.0
2018-Feb-16 01:26N 32°08' W 081°08'0 0.0
2018-Feb-16 00:56N 32°08' W 081°08'0 0.0
2018-Feb-16 00:13N 32°08' W 081°08'0 0.0
2018-Feb-15 23:55N 32°08' W 081°08'0 0.0
2018-Feb-15 23:19N 32°08' W 081°08'0 0.0
2018-Feb-15 22:55N 32°08' W 081°08'0 0.0
2018-Feb-15 22:31N 32°08' W 081°08'0 0.0
2018-Feb-15 21:54N 32°08' W 081°08'0 0.0
2018-Feb-15 21:30N 32°08' W 081°08'0 0.0
2018-Feb-15 21:00N 32°08' W 081°08'0 0.0
2018-Feb-15 20:30N 32°08' W 081°08'0 0.0
2018-Feb-15 19:59N 32°08' W 081°08'0 0.0
2018-Feb-15 19:29N 32°08' W 081°08'0 0.0
2018-Feb-15 18:59N 32°08' W 081°08'0 0.0
2018-Feb-15 18:29N 32°08' W 081°08'0 0.0
2018-Feb-15 17:59N 32°08' W 081°08'0 0.0
2018-Feb-15 17:28N 32°08' W 081°08'0 0.0
2018-Feb-15 16:58N 32°08' W 081°08'0 0.0
2018-Feb-15 16:28N 32°08' W 081°08'0 0.0
2018-Feb-15 15:58N 32°08' W 081°08'0 0.0
2018-Feb-15 15:27N 32°08' W 081°08'0 0.6
2018-Feb-15 15:00N 32°08' W 081°08'2 4.9
2018-Feb-15 14:30N 32°06' W 081°06'3 5.6
2018-Feb-15 14:00N 32°05' W 081°03'4 7.1
2018-Feb-15 13:30N 32°05' W 080°59'5 9.6
2018-Feb-15 13:00N 32°02' W 080°54'612.9
2018-Feb-15 12:30N 31°60' W 080°47'714.6
2018-Feb-15 12:00N 31°57' W 080°39'510.9
2018-Feb-15 11:30N 31°56' W 080°33'2 0.4
2018-Feb-15 05:46N 31°56' W 080°30'0 0.2
2018-Feb-15 05:27N 31°56' W 080°30'0 0.1
2018-Feb-15 04:57N 31°56' W 080°30'0 0.0
2018-Feb-15 04:27N 31°56' W 080°30'0 0.0
2018-Feb-15 03:57N 31°56' W 080°30'0 0.0
2018-Feb-15 03:21N 31°56' W 080°30'0 0.1
2018-Feb-15 02:56N 31°56' W 080°30'0 0.0
2018-Feb-15 02:26N 31°56' W 080°30'0 0.1
2018-Feb-14 22:49N 31°56' W 080°31'0 0.0
2018-Feb-14 22:12N 31°56' W 080°31'0 0.0
2018-Feb-14 20:30N 31°56' W 080°31'0 0.0
2018-Feb-14 19:47N 31°56' W 080°31'0 0.1
2018-Feb-14 19:29N 31°56' W 080°31'0 0.0
2018-Feb-14 18:41N 31°56' W 080°31'0 0.1
2018-Feb-14 18:23N 31°56' W 080°31'0 0.1
2018-Feb-14 17:52N 31°56' W 080°31'0 0.1
2018-Feb-14 17:28N 31°56' W 080°31'0 0.1
2018-Feb-14 16:58N 31°56' W 080°31'0 0.1
2018-Feb-14 16:28N 31°56' W 080°31'0 0.0
2018-Feb-14 15:58N 31°56' W 080°31'0 0.0
2018-Feb-14 15:21N 31°56' W 080°31'0 0.1
2018-Feb-14 14:57N 31°56' W 080°31'0 0.0
2018-Feb-14 14:09N 31°56' W 080°31'0 0.0
2018-Feb-14 13:51N 31°56' W 080°31'0 0.1
2018-Feb-14 13:14N 31°56' W 080°31'0 0.4
2018-Feb-14 12:56N 31°56' W 080°31'0 0.1
2018-Feb-14 12:26N 31°56' W 080°31'0 0.0
2018-Feb-14 10:55N 31°56' W 080°31'0 0.1
2018-Feb-14 10:25N 31°56' W 080°31'0 0.0
2018-Feb-14 09:31N 31°56' W 080°31'0 0.1
2018-Feb-14 09:01N 31°56' W 080°31'0 0.1
2018-Feb-14 08:48N 31°56' W 080°31'0 0.0
2018-Feb-14 07:48N 31°56' W 080°31'0 0.1
2018-Feb-14 07:30N 31°56' W 080°31'0 0.0
2018-Feb-14 07:00N 31°56' W 080°31'0 0.0
2018-Feb-14 05:41N 31°56' W 080°31'0 0.1
2018-Feb-14 05:29N 31°56' W 080°31'0 0.0
2018-Feb-14 04:53N 31°56' W 080°31'0 0.0
2018-Feb-14 04:23N 31°56' W 080°31'0 0.0
2018-Feb-14 03:58N 31°56' W 080°31'0 0.0
2018-Feb-14 03:28N 31°56' W 080°31'0 0.0
2018-Feb-14 02:58N 31°56' W 080°31'0 0.0
2018-Feb-14 02:28N 31°56' W 080°31'0 0.0
2018-Feb-14 01:58N 31°56' W 080°31'0 0.1
2018-Feb-14 01:21N 31°56' W 080°31'0 0.0
2018-Feb-14 00:51N 31°56' W 080°31'0 0.0
2018-Feb-14 00:21N 31°56' W 080°31'0 0.0
2018-Feb-13 23:32N 31°56' W 080°31'0 0.3
2018-Feb-13 23:20N 31°56' W 080°31'0 0.0
2018-Feb-13 22:56N 31°56' W 080°31'0 0.0
2018-Feb-13 22:08N 31°56' W 080°31'0 0.1
2018-Feb-13 21:56N 31°56' W 080°31'0 0.0
2018-Feb-13 21:26N 31°56' W 080°31'0 0.0
2018-Feb-13 20:49N 31°56' W 080°31'0 0.1
2018-Feb-13 20:19N 31°56' W 080°31'0 0.1
2018-Feb-13 19:49N 31°56' W 080°31'0 0.1
2018-Feb-13 19:19N 31°56' W 080°31'0 0.1
2018-Feb-13 19:01N 31°56' W 080°31'0 0.1
2018-Feb-13 18:30N 31°56' W 080°31'0 0.1
2018-Feb-13 18:00N 31°56' W 080°31'0 0.0
2018-Feb-13 17:30N 31°56' W 080°31'0 0.0
2018-Feb-13 17:00N 31°56' W 080°31'0 0.0
2018-Feb-13 16:29N 31°56' W 080°31'0 0.1
2018-Feb-13 15:59N 31°56' W 080°31'0 0.1
2018-Feb-13 15:29N 31°56' W 080°31'1 1.7
2018-Feb-13 15:00N 31°55' W 080°31'4 8.3
2018-Feb-13 14:30N 31°51' W 080°30'611.5
2018-Feb-13 14:00N 31°46' W 080°26'32713.1
2018-Feb-12 13:01N 26°23' W 079°26'020.7
2018-Feb-12 12:59N 26°23' W 079°26'1021.0
2018-Feb-12 12:30N 26°13' W 079°29'1121.3
2018-Feb-12 12:00N 26°03' W 079°32'1121.5
2018-Feb-12 11:30N 25°53' W 079°35'1121.7
2018-Feb-12 11:00N 25°42' W 079°35'1122.0
2018-Feb-12 10:31N 25°31' W 079°35'  
2018-Feb-10 00:26N 09°38' W 079°57'921.0
2018-Feb-10 00:00N 09°30' W 079°55'714.9
2018-Feb-09 23:30N 09°22' W 079°55'1 2.9
2018-Feb-09 23:00N 09°21' W 079°55'0 0.5
2018-Feb-09 22:45N 09°21' W 079°55'  

Dump ship's entire track history